sensor_id;sensor_type;location;lat;lon;timestamp;temperature;humidity
13203;DHT22;6666;51.626;7.530;2023-01-30T00:02:07;3.70;99.90
13203;DHT22;6666;51.626;7.530;2023-01-30T00:04:36;3.80;99.90
13203;DHT22;6666;51.626;7.530;2023-01-30T00:07:04;3.80;99.90
13203;DHT22;6666;51.626;7.530;2023-01-30T00:09:34;3.80;99.90
13203;DHT22;6666;51.626;7.530;2023-01-30T00:12:03;3.80;99.90
13203;DHT22;6666;51.626;7.530;2023-01-30T00:14:31;3.80;99.90
13203;DHT22;6666;51.626;7.530;2023-01-30T00:16:59;3.90;99.90
13203;DHT22;6666;51.626;7.530;2023-01-30T00:19:27;3.90;99.90
13203;DHT22;6666;51.626;7.530;2023-01-30T00:21:55;3.90;99.90
13203;DHT22;6666;51.626;7.530;2023-01-30T00:24:24;3.90;99.90
13203;DHT22;6666;51.626;7.530;2023-01-30T00:26:53;4.00;99.90
13203;DHT22;6666;51.626;7.530;2023-01-30T00:29:22;4.00;99.90
13203;DHT22;6666;51.626;7.530;2023-01-30T00:31:50;4.00;99.90
13203;DHT22;6666;51.626;7.530;2023-01-30T00:34:18;4.00;99.90
13203;DHT22;6666;51.626;7.530;2023-01-30T00:36:46;4.10;99.90
13203;DHT22;6666;51.626;7.530;2023-01-30T00:39:32;4.00;99.90
13203;DHT22;6666;51.626;7.530;2023-01-30T00:42:02;4.10;99.90
13203;DHT22;6666;51.626;7.530;2023-01-30T00:44:48;4.10;99.90
13203;DHT22;6666;51.626;7.530;2023-01-30T00:47:34;4.10;99.90
13203;DHT22;6666;51.626;7.530;2023-01-30T00:50:03;4.10;99.90
13203;DHT22;6666;51.626;7.530;2023-01-30T00:52:31;4.20;99.90
13203;DHT22;6666;51.626;7.530;2023-01-30T00:54:59;4.30;99.90
13203;DHT22;6666;51.626;7.530;2023-01-30T00:57:29;4.30;99.90
13203;DHT22;6666;51.626;7.530;2023-01-30T00:59:57;4.30;99.90
13203;DHT22;6666;51.626;7.530;2023-01-30T01:02:26;4.30;99.90
13203;DHT22;6666;51.626;7.530;2023-01-30T01:04:54;4.30;99.90
13203;DHT22;6666;51.626;7.530;2023-01-30T01:07:22;4.30;99.90
13203;DHT22;6666;51.626;7.530;2023-01-30T01:09:50;4.40;99.90
13203;DHT22;6666;51.626;7.530;2023-01-30T01:12:19;4.40;99.90
13203;DHT22;6666;51.626;7.530;2023-01-30T01:14:48;4.40;99.90
13203;DHT22;6666;51.626;7.530;2023-01-30T01:17:17;4.40;99.90
13203;DHT22;6666;51.626;7.530;2023-01-30T01:19:45;4.40;99.90
13203;DHT22;6666;51.626;7.530;2023-01-30T01:22:14;4.40;99.90
13203;DHT22;6666;51.626;7.530;2023-01-30T01:24:42;4.40;99.90
13203;DHT22;6666;51.626;7.530;2023-01-30T01:27:11;4.40;99.90
13203;DHT22;6666;51.626;7.530;2023-01-30T01:29:39;4.40;99.90
13203;DHT22;6666;51.626;7.530;2023-01-30T01:32:09;4.30;99.90
13203;DHT22;6666;51.626;7.530;2023-01-30T01:34:39;4.30;99.90
13203;DHT22;6666;51.626;7.530;2023-01-30T01:37:07;4.30;99.90
13203;DHT22;6666;51.626;7.530;2023-01-30T01:39:35;4.30;99.90
13203;DHT22;6666;51.626;7.530;2023-01-30T01:42:17;4.30;99.90
13203;DHT22;6666;51.626;7.530;2023-01-30T01:44:59;4.30;99.90
13203;DHT22;6666;51.626;7.530;2023-01-30T01:47:31;4.30;99.90
13203;DHT22;6666;51.626;7.530;2023-01-30T01:50:03;4.30;99.90
13203;DHT22;6666;51.626;7.530;2023-01-30T01:52:34;4.30;99.90
13203;DHT22;6666;51.626;7.530;2023-01-30T01:55:05;4.30;99.90
13203;DHT22;6666;51.626;7.530;2023-01-30T01:57:37;4.30;99.90
13203;DHT22;6666;51.626;7.530;2023-01-30T02:00:09;4.30;99.90
13203;DHT22;6666;51.626;7.530;2023-01-30T02:02:42;4.30;99.90
13203;DHT22;6666;51.626;7.530;2023-01-30T02:05:12;4.30;99.90
13203;DHT22;6666;51.626;7.530;2023-01-30T02:07:45;4.30;99.90
13203;DHT22;6666;51.626;7.530;2023-01-30T02:10:18;4.30;99.90
13203;DHT22;6666;51.626;7.530;2023-01-30T02:12:47;4.30;99.90
13203;DHT22;6666;51.626;7.530;2023-01-30T02:15:19;4.40;99.90
13203;DHT22;6666;51.626;7.530;2023-01-30T02:17:49;4.40;99.90
13203;DHT22;6666;51.626;7.530;2023-01-30T02:20:25;4.40;99.90
13203;DHT22;6666;51.626;7.530;2023-01-30T02:26:26;4.40;99.90
13203;DHT22;6666;51.626;7.530;2023-01-30T02:29:27;4.40;99.90
13203;DHT22;6666;51.626;7.530;2023-01-30T02:32:04;4.40;99.90
13203;DHT22;6666;51.626;7.530;2023-01-30T02:34:40;4.40;99.90
13203;DHT22;6666;51.626;7.530;2023-01-30T02:37:26;4.50;99.90
13203;DHT22;6666;51.626;7.530;2023-01-30T02:40:08;4.50;99.90
13203;DHT22;6666;51.626;7.530;2023-01-30T02:42:44;4.50;99.90
13203;DHT22;6666;51.626;7.530;2023-01-30T02:45:19;4.50;99.90
13203;DHT22;6666;51.626;7.530;2023-01-30T02:47:55;4.50;99.90
13203;DHT22;6666;51.626;7.530;2023-01-30T02:50:26;4.60;99.90
13203;DHT22;6666;51.626;7.530;2023-01-30T02:52:56;4.60;99.90
13203;DHT22;6666;51.626;7.530;2023-01-30T02:55:27;4.60;99.90
13203;DHT22;6666;51.626;7.530;2023-01-30T02:57:56;4.60;99.90
13203;DHT22;6666;51.626;7.530;2023-01-30T03:00:33;4.60;99.90
13203;DHT22;6666;51.626;7.530;2023-01-30T03:06:15;4.70;99.90
13203;DHT22;6666;51.626;7.530;2023-01-30T03:08:57;4.70;99.90
13203;DHT22;6666;51.626;7.530;2023-01-30T03:11:36;4.70;99.90
13203;DHT22;6666;51.626;7.530;2023-01-30T03:14:10;4.80;99.90
13203;DHT22;6666;51.626;7.530;2023-01-30T03:16:41;4.80;99.90
13203;DHT22;6666;51.626;7.530;2023-01-30T03:19:12;4.80;99.90
13203;DHT22;6666;51.626;7.530;2023-01-30T03:21:41;4.80;99.90
13203;DHT22;6666;51.626;7.530;2023-01-30T03:24:11;4.80;99.90
13203;DHT22;6666;51.626;7.530;2023-01-30T03:26:43;4.90;99.90
13203;DHT22;6666;51.626;7.530;2023-01-30T03:29:13;4.90;99.90
13203;DHT22;6666;51.626;7.530;2023-01-30T03:31:42;4.90;99.90
13203;DHT22;6666;51.626;7.530;2023-01-30T03:34:12;4.90;99.90
13203;DHT22;6666;51.626;7.530;2023-01-30T03:36:41;5.00;99.90
13203;DHT22;6666;51.626;7.530;2023-01-30T03:39:09;5.00;99.90
13203;DHT22;6666;51.626;7.530;2023-01-30T03:41:38;5.10;99.90
13203;DHT22;6666;51.626;7.530;2023-01-30T03:44:07;5.10;99.90
13203;DHT22;6666;51.626;7.530;2023-01-30T03:46:35;5.00;99.90
13203;DHT22;6666;51.626;7.530;2023-01-30T03:49:03;5.10;99.90
13203;DHT22;6666;51.626;7.530;2023-01-30T03:51:34;5.10;99.90
13203;DHT22;6666;51.626;7.530;2023-01-30T03:54:02;5.00;99.90
13203;DHT22;6666;51.626;7.530;2023-01-30T03:56:31;5.00;99.90
13203;DHT22;6666;51.626;7.530;2023-01-30T03:58:59;5.10;99.90
13203;DHT22;6666;51.626;7.530;2023-01-30T04:01:36;5.10;99.90
13203;DHT22;6666;51.626;7.530;2023-01-30T04:04:05;5.00;99.90
13203;DHT22;6666;51.626;7.530;2023-01-30T04:06:34;5.10;99.90
13203;DHT22;6666;51.626;7.530;2023-01-30T04:09:04;5.10;99.90
13203;DHT22;6666;51.626;7.530;2023-01-30T04:11:52;5.10;99.90
13203;DHT22;6666;51.626;7.530;2023-01-30T04:14:21;5.10;99.90
13203;DHT22;6666;51.626;7.530;2023-01-30T04:17:08;5.10;99.90
13203;DHT22;6666;51.626;7.530;2023-01-30T04:19:57;5.10;99.90
13203;DHT22;6666;51.626;7.530;2023-01-30T04:22:27;5.10;99.90
13203;DHT22;6666;51.626;7.530;2023-01-30T04:24:55;5.10;99.90
13203;DHT22;6666;51.626;7.530;2023-01-30T04:27:23;5.10;99.90
13203;DHT22;6666;51.626;7.530;2023-01-30T04:30:07;5.00;99.90
13203;DHT22;6666;51.626;7.530;2023-01-30T04:32:36;5.00;99.90
13203;DHT22;6666;51.626;7.530;2023-01-30T04:35:05;5.10;99.90
13203;DHT22;6666;51.626;7.530;2023-01-30T04:37:34;5.10;99.90
13203;DHT22;6666;51.626;7.530;2023-01-30T04:40:04;5.10;99.90
13203;DHT22;6666;51.626;7.530;2023-01-30T04:42:34;5.10;99.90
13203;DHT22;6666;51.626;7.530;2023-01-30T04:45:24;5.10;99.90
13203;DHT22;6666;51.626;7.530;2023-01-30T04:47:55;5.10;99.90
13203;DHT22;6666;51.626;7.530;2023-01-30T04:50:24;5.10;99.90
13203;DHT22;6666;51.626;7.530;2023-01-30T04:52:53;5.20;99.90
13203;DHT22;6666;51.626;7.530;2023-01-30T04:55:22;5.20;99.90
13203;DHT22;6666;51.626;7.530;2023-01-30T04:57:50;5.20;99.90
13203;DHT22;6666;51.626;7.530;2023-01-30T05:00:18;5.20;99.90
13203;DHT22;6666;51.626;7.530;2023-01-30T05:02:52;5.20;99.90
13203;DHT22;6666;51.626;7.530;2023-01-30T05:05:21;5.20;99.90
13203;DHT22;6666;51.626;7.530;2023-01-30T05:07:50;5.20;99.90
13203;DHT22;6666;51.626;7.530;2023-01-30T05:10:20;5.30;99.90
13203;DHT22;6666;51.626;7.530;2023-01-30T05:12:48;5.30;99.90
13203;DHT22;6666;51.626;7.530;2023-01-30T05:15:17;5.30;99.90
13203;DHT22;6666;51.626;7.530;2023-01-30T05:17:45;5.30;99.90
13203;DHT22;6666;51.626;7.530;2023-01-30T05:20:13;5.30;99.90
13203;DHT22;6666;51.626;7.530;2023-01-30T05:22:42;5.30;99.90
13203;DHT22;6666;51.626;7.530;2023-01-30T05:25:10;5.30;99.90
13203;DHT22;6666;51.626;7.530;2023-01-30T05:27:39;5.40;99.90
13203;DHT22;6666;51.626;7.530;2023-01-30T05:30:09;5.40;99.90
13203;DHT22;6666;51.626;7.530;2023-01-30T05:32:37;5.40;99.90
13203;DHT22;6666;51.626;7.530;2023-01-30T05:35:07;5.40;99.90
13203;DHT22;6666;51.626;7.530;2023-01-30T05:37:35;5.40;99.90
13203;DHT22;6666;51.626;7.530;2023-01-30T05:40:05;5.40;99.90
13203;DHT22;6666;51.626;7.530;2023-01-30T05:42:34;5.50;99.90
13203;DHT22;6666;51.626;7.530;2023-01-30T05:45:05;5.50;99.90
13203;DHT22;6666;51.626;7.530;2023-01-30T05:47:34;5.70;99.90
13203;DHT22;6666;51.626;7.530;2023-01-30T05:50:02;5.60;99.90
13203;DHT22;6666;51.626;7.530;2023-01-30T05:52:30;5.60;99.90
13203;DHT22;6666;51.626;7.530;2023-01-30T05:54:58;5.60;99.90
13203;DHT22;6666;51.626;7.530;2023-01-30T05:57:27;5.60;99.90
13203;DHT22;6666;51.626;7.530;2023-01-30T05:59:55;5.60;99.90
13203;DHT22;6666;51.626;7.530;2023-01-30T06:02:25;5.60;99.90
13203;DHT22;6666;51.626;7.530;2023-01-30T06:04:53;5.60;99.90
13203;DHT22;6666;51.626;7.530;2023-01-30T06:07:22;5.70;99.90
13203;DHT22;6666;51.626;7.530;2023-01-30T06:09:50;5.70;99.90
13203;DHT22;6666;51.626;7.530;2023-01-30T06:12:18;5.80;99.90
13203;DHT22;6666;51.626;7.530;2023-01-30T06:14:46;5.70;99.90
13203;DHT22;6666;51.626;7.530;2023-01-30T06:17:14;5.70;99.90
13203;DHT22;6666;51.626;7.530;2023-01-30T06:19:44;5.70;99.90
13203;DHT22;6666;51.626;7.530;2023-01-30T06:22:12;5.70;99.90
13203;DHT22;6666;51.626;7.530;2023-01-30T06:24:41;5.80;99.90
13203;DHT22;6666;51.626;7.530;2023-01-30T06:27:17;5.80;99.90
13203;DHT22;6666;51.626;7.530;2023-01-30T06:29:52;5.90;99.90
13203;DHT22;6666;51.626;7.530;2023-01-30T06:32:21;6.00;99.90
13203;DHT22;6666;51.626;7.530;2023-01-30T06:34:51;6.00;99.90
13203;DHT22;6666;51.626;7.530;2023-01-30T06:37:19;6.00;99.90
13203;DHT22;6666;51.626;7.530;2023-01-30T06:39:48;6.10;99.90
13203;DHT22;6666;51.626;7.530;2023-01-30T06:42:16;6.10;99.90
13203;DHT22;6666;51.626;7.530;2023-01-30T06:44:44;6.10;99.90
13203;DHT22;6666;51.626;7.530;2023-01-30T06:47:12;6.10;99.90
13203;DHT22;6666;51.626;7.530;2023-01-30T06:49:40;6.20;99.90
13203;DHT22;6666;51.626;7.530;2023-01-30T06:52:10;6.20;99.90
13203;DHT22;6666;51.626;7.530;2023-01-30T06:54:38;6.30;99.90
13203;DHT22;6666;51.626;7.530;2023-01-30T06:57:06;6.40;99.90
13203;DHT22;6666;51.626;7.530;2023-01-30T06:59:35;6.40;99.90
13203;DHT22;6666;51.626;7.530;2023-01-30T07:02:03;6.40;99.90
13203;DHT22;6666;51.626;7.530;2023-01-30T07:04:32;6.40;99.90
13203;DHT22;6666;51.626;7.530;2023-01-30T07:07:00;6.50;99.90
13203;DHT22;6666;51.626;7.530;2023-01-30T07:09:30;6.70;99.90
13203;DHT22;6666;51.626;7.530;2023-01-30T07:11:58;6.60;99.90
13203;DHT22;6666;51.626;7.530;2023-01-30T07:14:26;6.60;99.90
13203;DHT22;6666;51.626;7.530;2023-01-30T07:16:55;6.60;99.90
13203;DHT22;6666;51.626;7.530;2023-01-30T07:19:23;6.60;99.90
13203;DHT22;6666;51.626;7.530;2023-01-30T07:21:51;6.60;99.90
13203;DHT22;6666;51.626;7.530;2023-01-30T07:24:20;6.50;99.90
13203;DHT22;6666;51.626;7.530;2023-01-30T07:26:49;6.60;99.90
13203;DHT22;6666;51.626;7.530;2023-01-30T07:29:18;6.50;99.90
13203;DHT22;6666;51.626;7.530;2023-01-30T07:31:46;6.50;99.90
13203;DHT22;6666;51.626;7.530;2023-01-30T07:34:15;6.60;99.90
13203;DHT22;6666;51.626;7.530;2023-01-30T07:36:43;6.50;99.90
13203;DHT22;6666;51.626;7.530;2023-01-30T07:39:12;6.50;99.90
13203;DHT22;6666;51.626;7.530;2023-01-30T07:41:40;6.60;99.90
13203;DHT22;6666;51.626;7.530;2023-01-30T07:44:11;6.60;99.90
13203;DHT22;6666;51.626;7.530;2023-01-30T07:46:40;6.70;99.90
13203;DHT22;6666;51.626;7.530;2023-01-30T07:49:08;6.60;99.90
13203;DHT22;6666;51.626;7.530;2023-01-30T07:51:39;6.60;99.90
13203;DHT22;6666;51.626;7.530;2023-01-30T07:54:07;6.60;99.90
13203;DHT22;6666;51.626;7.530;2023-01-30T07:56:36;6.60;99.90
13203;DHT22;6666;51.626;7.530;2023-01-30T07:59:04;6.70;99.90
13203;DHT22;6666;51.626;7.530;2023-01-30T08:01:34;6.70;99.90
13203;DHT22;6666;51.626;7.530;2023-01-30T08:04:02;6.70;99.90
13203;DHT22;6666;51.626;7.530;2023-01-30T08:06:30;6.70;99.90
13203;DHT22;6666;51.626;7.530;2023-01-30T08:09:03;6.70;99.90
13203;DHT22;6666;51.626;7.530;2023-01-30T08:11:31;6.70;99.90
13203;DHT22;6666;51.626;7.530;2023-01-30T08:14:00;6.70;99.90
13203;DHT22;6666;51.626;7.530;2023-01-30T08:16:28;6.70;99.90
13203;DHT22;6666;51.626;7.530;2023-01-30T08:18:59;6.70;99.90
13203;DHT22;6666;51.626;7.530;2023-01-30T08:21:28;6.70;99.90
13203;DHT22;6666;51.626;7.530;2023-01-30T08:23:56;6.70;99.90
13203;DHT22;6666;51.626;7.530;2023-01-30T08:26:27;6.70;99.90
13203;DHT22;6666;51.626;7.530;2023-01-30T08:28:55;6.70;99.90
13203;DHT22;6666;51.626;7.530;2023-01-30T08:31:23;6.70;99.90
13203;DHT22;6666;51.626;7.530;2023-01-30T08:33:51;6.70;99.90
13203;DHT22;6666;51.626;7.530;2023-01-30T08:36:21;6.60;99.90
13203;DHT22;6666;51.626;7.530;2023-01-30T08:38:49;6.60;99.90
13203;DHT22;6666;51.626;7.530;2023-01-30T08:41:17;6.60;99.90
13203;DHT22;6666;51.626;7.530;2023-01-30T08:43:46;6.70;99.90
13203;DHT22;6666;51.626;7.530;2023-01-30T08:46:14;6.70;99.90
13203;DHT22;6666;51.626;7.530;2023-01-30T08:48:43;6.70;99.90
13203;DHT22;6666;51.626;7.530;2023-01-30T08:51:16;6.70;99.90
13203;DHT22;6666;51.626;7.530;2023-01-30T08:53:46;6.80;99.90
13203;DHT22;6666;51.626;7.530;2023-01-30T08:56:14;6.70;99.90
13203;DHT22;6666;51.626;7.530;2023-01-30T08:58:42;6.70;99.90
13203;DHT22;6666;51.626;7.530;2023-01-30T09:01:12;6.70;99.90
13203;DHT22;6666;51.626;7.530;2023-01-30T09:03:40;6.80;99.90
13203;DHT22;6666;51.626;7.530;2023-01-30T09:06:09;6.80;99.90
13203;DHT22;6666;51.626;7.530;2023-01-30T09:08:38;6.90;99.90
13203;DHT22;6666;51.626;7.530;2023-01-30T09:11:09;6.80;99.90
13203;DHT22;6666;51.626;7.530;2023-01-30T09:13:37;6.80;99.90
13203;DHT22;6666;51.626;7.530;2023-01-30T09:16:09;6.80;99.90
13203;DHT22;6666;51.626;7.530;2023-01-30T09:18:39;6.90;99.90
13203;DHT22;6666;51.626;7.530;2023-01-30T09:21:08;6.90;99.90
13203;DHT22;6666;51.626;7.530;2023-01-30T09:23:37;6.90;99.90
13203;DHT22;6666;51.626;7.530;2023-01-30T09:26:07;6.90;99.90
13203;DHT22;6666;51.626;7.530;2023-01-30T09:28:35;6.90;99.90
13203;DHT22;6666;51.626;7.530;2023-01-30T09:31:04;6.90;99.90
13203;DHT22;6666;51.626;7.530;2023-01-30T09:33:32;6.90;99.90
13203;DHT22;6666;51.626;7.530;2023-01-30T09:36:00;6.90;99.90
13203;DHT22;6666;51.626;7.530;2023-01-30T09:38:29;6.90;99.90
13203;DHT22;6666;51.626;7.530;2023-01-30T09:41:30;7.00;99.90
13203;DHT22;6666;51.626;7.530;2023-01-30T09:44:14;7.00;99.90
13203;DHT22;6666;51.626;7.530;2023-01-30T09:46:48;7.00;99.90
13203;DHT22;6666;51.626;7.530;2023-01-30T09:49:28;6.90;99.90
13203;DHT22;6666;51.626;7.530;2023-01-30T09:52:07;6.90;99.90
13203;DHT22;6666;51.626;7.530;2023-01-30T09:54:43;6.90;99.90
13203;DHT22;6666;51.626;7.530;2023-01-30T09:57:16;7.00;99.90
13203;DHT22;6666;51.626;7.530;2023-01-30T09:59:56;7.00;99.90
13203;DHT22;6666;51.626;7.530;2023-01-30T10:02:48;7.00;99.90
13203;DHT22;6666;51.626;7.530;2023-01-30T10:05:17;7.00;99.90
13203;DHT22;6666;51.626;7.530;2023-01-30T10:08:06;7.00;99.90
13203;DHT22;6666;51.626;7.530;2023-01-30T10:10:45;6.90;99.90
13203;DHT22;6666;51.626;7.530;2023-01-30T10:13:46;7.00;99.90
13203;DHT22;6666;51.626;7.530;2023-01-30T10:16:23;7.10;99.90
13203;DHT22;6666;51.626;7.530;2023-01-30T10:19:13;7.30;99.90
13203;DHT22;6666;51.626;7.530;2023-01-30T10:22:11;7.30;99.90
13203;DHT22;6666;51.626;7.530;2023-01-30T10:24:52;7.40;99.90
13203;DHT22;6666;51.626;7.530;2023-01-30T10:27:23;7.40;99.90
13203;DHT22;6666;51.626;7.530;2023-01-30T10:29:56;7.40;99.90
13203;DHT22;6666;51.626;7.530;2023-01-30T10:32:29;7.40;99.90
13203;DHT22;6666;51.626;7.530;2023-01-30T10:35:04;7.30;99.90
13203;DHT22;6666;51.626;7.530;2023-01-30T10:37:40;7.20;99.90
13203;DHT22;6666;51.626;7.530;2023-01-30T10:40:17;7.20;99.90
13203;DHT22;6666;51.626;7.530;2023-01-30T10:42:51;7.20;99.90
13203;DHT22;6666;51.626;7.530;2023-01-30T10:45:28;7.20;99.90
13203;DHT22;6666;51.626;7.530;2023-01-30T10:48:22;7.20;99.90
13203;DHT22;6666;51.626;7.530;2023-01-30T10:51:17;7.30;99.90
13203;DHT22;6666;51.626;7.530;2023-01-30T10:53:52;7.30;99.90
13203;DHT22;6666;51.626;7.530;2023-01-30T10:56:32;7.40;99.90
13203;DHT22;6666;51.626;7.530;2023-01-30T10:59:09;7.40;99.90
13203;DHT22;6666;51.626;7.530;2023-01-30T11:01:44;7.40;99.90
13203;DHT22;6666;51.626;7.530;2023-01-30T11:04:24;7.50;99.90
13203;DHT22;6666;51.626;7.530;2023-01-30T11:06:54;7.40;99.90
13203;DHT22;6666;51.626;7.530;2023-01-30T11:09:23;7.40;99.90
13203;DHT22;6666;51.626;7.530;2023-01-30T11:11:52;7.50;99.90
13203;DHT22;6666;51.626;7.530;2023-01-30T11:14:21;7.50;99.90
13203;DHT22;6666;51.626;7.530;2023-01-30T11:16:53;7.40;99.90
13203;DHT22;6666;51.626;7.530;2023-01-30T11:19:23;7.30;99.90
13203;DHT22;6666;51.626;7.530;2023-01-30T11:21:53;7.30;99.90
13203;DHT22;6666;51.626;7.530;2023-01-30T11:24:27;7.30;99.90
13203;DHT22;6666;51.626;7.530;2023-01-30T11:27:08;7.30;99.90
13203;DHT22;6666;51.626;7.530;2023-01-30T11:29:38;7.30;99.90
13203;DHT22;6666;51.626;7.530;2023-01-30T11:32:14;7.30;99.90
13203;DHT22;6666;51.626;7.530;2023-01-30T11:35:02;7.30;99.90
13203;DHT22;6666;51.626;7.530;2023-01-30T11:37:33;7.40;99.90
13203;DHT22;6666;51.626;7.530;2023-01-30T11:40:11;7.20;99.90
13203;DHT22;6666;51.626;7.530;2023-01-30T11:42:49;7.30;99.90
13203;DHT22;6666;51.626;7.530;2023-01-30T11:45:18;7.30;99.90
13203;DHT22;6666;51.626;7.530;2023-01-30T11:47:52;7.30;99.90
13203;DHT22;6666;51.626;7.530;2023-01-30T11:50:32;7.10;99.90
13203;DHT22;6666;51.626;7.530;2023-01-30T11:53:28;7.20;99.90
13203;DHT22;6666;51.626;7.530;2023-01-30T11:55:59;7.20;99.90
13203;DHT22;6666;51.626;7.530;2023-01-30T11:58:38;7.30;99.90
13203;DHT22;6666;51.626;7.530;2023-01-30T12:01:08;7.40;99.90
13203;DHT22;6666;51.626;7.530;2023-01-30T12:03:45;7.40;99.90
13203;DHT22;6666;51.626;7.530;2023-01-30T12:06:27;7.40;99.90
13203;DHT22;6666;51.626;7.530;2023-01-30T12:08:57;7.40;99.90
13203;DHT22;6666;51.626;7.530;2023-01-30T12:11:31;7.50;99.90
13203;DHT22;6666;51.626;7.530;2023-01-30T12:14:16;7.60;99.90
13203;DHT22;6666;51.626;7.530;2023-01-30T12:16:54;7.70;99.90
13203;DHT22;6666;51.626;7.530;2023-01-30T12:19:33;7.70;99.90
13203;DHT22;6666;51.626;7.530;2023-01-30T12:22:11;7.70;99.90
13203;DHT22;6666;51.626;7.530;2023-01-30T12:24:49;7.80;99.90
13203;DHT22;6666;51.626;7.530;2023-01-30T12:27:24;7.90;99.90
13203;DHT22;6666;51.626;7.530;2023-01-30T12:29:59;7.80;99.90
13203;DHT22;6666;51.626;7.530;2023-01-30T12:32:31;7.90;99.90
13203;DHT22;6666;51.626;7.530;2023-01-30T12:35:13;7.90;99.90
13203;DHT22;6666;51.626;7.530;2023-01-30T12:37:52;7.90;99.90
13203;DHT22;6666;51.626;7.530;2023-01-30T12:40:35;7.90;99.90
13203;DHT22;6666;51.626;7.530;2023-01-30T12:43:28;7.90;99.90
13203;DHT22;6666;51.626;7.530;2023-01-30T12:46:11;8.00;99.90
13203;DHT22;6666;51.626;7.530;2023-01-30T12:48:57;7.90;99.90
13203;DHT22;6666;51.626;7.530;2023-01-30T12:51:53;8.00;99.90
13203;DHT22;6666;51.626;7.530;2023-01-30T12:54:36;8.00;99.90
13203;DHT22;6666;51.626;7.530;2023-01-30T12:57:17;8.00;99.90
13203;DHT22;6666;51.626;7.530;2023-01-30T13:00:01;8.00;99.90
13203;DHT22;6666;51.626;7.530;2023-01-30T13:02:44;7.80;99.90
13203;DHT22;6666;51.626;7.530;2023-01-30T13:05:26;7.80;99.90
13203;DHT22;6666;51.626;7.530;2023-01-30T13:08:11;7.80;99.90
13203;DHT22;6666;51.626;7.530;2023-01-30T13:10:49;7.70;99.90
13203;DHT22;6666;51.626;7.530;2023-01-30T13:13:23;7.80;99.90
13203;DHT22;6666;51.626;7.530;2023-01-30T13:16:00;7.80;99.90
13203;DHT22;6666;51.626;7.530;2023-01-30T13:18:34;7.80;99.90
13203;DHT22;6666;51.626;7.530;2023-01-30T13:21:09;7.90;99.90
13203;DHT22;6666;51.626;7.530;2023-01-30T13:23:47;7.90;99.90
13203;DHT22;6666;51.626;7.530;2023-01-30T13:26:23;8.00;99.90
13203;DHT22;6666;51.626;7.530;2023-01-30T13:28:55;8.10;99.90
13203;DHT22;6666;51.626;7.530;2023-01-30T13:31:27;8.20;99.90
13203;DHT22;6666;51.626;7.530;2023-01-30T13:34:04;8.20;99.90
13203;DHT22;6666;51.626;7.530;2023-01-30T13:36:41;8.20;99.90
13203;DHT22;6666;51.626;7.530;2023-01-30T13:39:14;8.20;99.90
13203;DHT22;6666;51.626;7.530;2023-01-30T13:41:55;8.20;99.90
13203;DHT22;6666;51.626;7.530;2023-01-30T13:44:28;8.20;99.90
13203;DHT22;6666;51.626;7.530;2023-01-30T13:47:02;8.20;99.90
13203;DHT22;6666;51.626;7.530;2023-01-30T13:49:41;8.20;99.90
13203;DHT22;6666;51.626;7.530;2023-01-30T13:52:19;8.40;99.90
13203;DHT22;6666;51.626;7.530;2023-01-30T13:54:57;8.30;99.90
13203;DHT22;6666;51.626;7.530;2023-01-30T13:57:39;8.30;99.90
13203;DHT22;6666;51.626;7.530;2023-01-30T14:00:24;8.30;99.90
13203;DHT22;6666;51.626;7.530;2023-01-30T14:03:13;8.30;99.90
13203;DHT22;6666;51.626;7.530;2023-01-30T14:06:10;8.30;99.90
13203;DHT22;6666;51.626;7.530;2023-01-30T14:08:47;8.30;99.90
13203;DHT22;6666;51.626;7.530;2023-01-30T14:11:38;8.30;99.90
13203;DHT22;6666;51.626;7.530;2023-01-30T14:14:26;8.40;99.90
13203;DHT22;6666;51.626;7.530;2023-01-30T14:17:06;8.30;99.90
13203;DHT22;6666;51.626;7.530;2023-01-30T14:19:39;8.30;99.90
13203;DHT22;6666;51.626;7.530;2023-01-30T14:22:20;8.30;99.90
13203;DHT22;6666;51.626;7.530;2023-01-30T14:27:54;8.40;99.90
13203;DHT22;6666;51.626;7.530;2023-01-30T14:30:36;8.40;99.90
13203;DHT22;6666;51.626;7.530;2023-01-30T14:33:33;8.40;99.90
13203;DHT22;6666;51.626;7.530;2023-01-30T14:36:32;8.40;99.90
13203;DHT22;6666;51.626;7.530;2023-01-30T14:39:35;8.30;99.90
13203;DHT22;6666;51.626;7.530;2023-01-30T14:42:21;8.20;99.90
13203;DHT22;6666;51.626;7.530;2023-01-30T14:45:01;8.00;99.90
13203;DHT22;6666;51.626;7.530;2023-01-30T14:47:31;7.90;99.90
13203;DHT22;6666;51.626;7.530;2023-01-30T14:50:19;7.50;99.90
13203;DHT22;6666;51.626;7.530;2023-01-30T14:52:49;7.30;99.90
13203;DHT22;6666;51.626;7.530;2023-01-30T14:55:23;7.20;99.90
13203;DHT22;6666;51.626;7.530;2023-01-30T14:57:57;7.20;99.90
13203;DHT22;6666;51.626;7.530;2023-01-30T15:00:27;7.30;99.90
13203;DHT22;6666;51.626;7.530;2023-01-30T15:03:00;7.40;99.90
13203;DHT22;6666;51.626;7.530;2023-01-30T15:05:38;7.50;99.90
13203;DHT22;6666;51.626;7.530;2023-01-30T15:08:12;7.70;99.90
13203;DHT22;6666;51.626;7.530;2023-01-30T15:11:02;7.70;99.90
13203;DHT22;6666;51.626;7.530;2023-01-30T15:13:46;7.60;99.90
13203;DHT22;6666;51.626;7.530;2023-01-30T15:16:43;7.50;99.90
13203;DHT22;6666;51.626;7.530;2023-01-30T15:19:38;7.60;99.90
13203;DHT22;6666;51.626;7.530;2023-01-30T15:22:19;7.50;99.90
13203;DHT22;6666;51.626;7.530;2023-01-30T15:25:13;7.40;99.90
13203;DHT22;6666;51.626;7.530;2023-01-30T15:27:54;7.40;99.90
13203;DHT22;6666;51.626;7.530;2023-01-30T15:30:40;7.40;99.90
13203;DHT22;6666;51.626;7.530;2023-01-30T15:33:15;7.30;99.90
13203;DHT22;6666;51.626;7.530;2023-01-30T15:35:56;7.30;99.90
13203;DHT22;6666;51.626;7.530;2023-01-30T15:38:28;7.30;99.90
13203;DHT22;6666;51.626;7.530;2023-01-30T15:41:01;7.20;99.90
13203;DHT22;6666;51.626;7.530;2023-01-30T15:43:52;7.20;99.90
13203;DHT22;6666;51.626;7.530;2023-01-30T15:46:30;7.20;99.90
13203;DHT22;6666;51.626;7.530;2023-01-30T15:49:11;7.20;99.90
13203;DHT22;6666;51.626;7.530;2023-01-30T15:51:44;7.20;99.90
13203;DHT22;6666;51.626;7.530;2023-01-30T15:54:17;7.30;99.90
13203;DHT22;6666;51.626;7.530;2023-01-30T15:56:47;7.20;99.90
13203;DHT22;6666;51.626;7.530;2023-01-30T15:59:25;7.20;99.90
13203;DHT22;6666;51.626;7.530;2023-01-30T16:02:00;7.20;99.90
13203;DHT22;6666;51.626;7.530;2023-01-30T16:04:32;7.20;99.90
13203;DHT22;6666;51.626;7.530;2023-01-30T16:07:13;7.20;99.90
13203;DHT22;6666;51.626;7.530;2023-01-30T16:09:53;7.20;99.90
13203;DHT22;6666;51.626;7.530;2023-01-30T16:12:33;7.20;99.90
13203;DHT22;6666;51.626;7.530;2023-01-30T16:15:02;7.20;99.90
13203;DHT22;6666;51.626;7.530;2023-01-30T16:17:51;7.20;99.90
13203;DHT22;6666;51.626;7.530;2023-01-30T16:20:22;7.20;99.90
13203;DHT22;6666;51.626;7.530;2023-01-30T16:22:50;7.30;99.90
13203;DHT22;6666;51.626;7.530;2023-01-30T16:25:22;7.20;99.90
13203;DHT22;6666;51.626;7.530;2023-01-30T16:27:52;7.20;99.90
13203;DHT22;6666;51.626;7.530;2023-01-30T16:30:22;7.30;99.90
13203;DHT22;6666;51.626;7.530;2023-01-30T16:32:53;7.30;99.90
13203;DHT22;6666;51.626;7.530;2023-01-30T16:35:30;7.30;99.90
13203;DHT22;6666;51.626;7.530;2023-01-30T16:38:01;7.20;99.90
13203;DHT22;6666;51.626;7.530;2023-01-30T16:40:44;7.30;99.90
13203;DHT22;6666;51.626;7.530;2023-01-30T16:43:17;7.30;99.90
13203;DHT22;6666;51.626;7.530;2023-01-30T16:48:48;7.30;99.90
13203;DHT22;6666;51.626;7.530;2023-01-30T16:51:26;7.30;99.90
13203;DHT22;6666;51.626;7.530;2023-01-30T16:53:57;7.30;99.90
13203;DHT22;6666;51.626;7.530;2023-01-30T16:56:29;7.30;99.90
13203;DHT22;6666;51.626;7.530;2023-01-30T16:58:59;7.30;99.90